createdAt,value
2023-04-15T00:00:59.359Z,98971.00
2023-04-15T00:03:28.022Z,98974.22
2023-04-15T00:05:56.526Z,98976.72
2023-04-15T00:08:24.906Z,98978.66
2023-04-15T00:10:53.270Z,98994.69
2023-04-15T00:13:23.429Z,98989.00
2023-04-15T00:15:51.770Z,98995.25
2023-04-15T00:18:20.122Z,98999.25
2023-04-15T00:20:48.751Z,98997.63
2023-04-15T00:23:17.200Z,99009.00
2023-04-15T00:25:45.833Z,99010.38
2023-04-15T00:28:14.717Z,99011.56
2023-04-15T00:30:43.259Z,99008.63
2023-04-15T00:33:12.013Z,99012.81
2023-04-15T00:35:40.509Z,99009.91
2023-04-15T00:38:12.498Z,99016.94
2023-04-15T00:40:40.932Z,99020.19
2023-04-15T00:43:09.356Z,99025.69
2023-04-15T00:45:38.336Z,99025.56
2023-04-15T00:48:07.284Z,99023.38
2023-04-15T00:50:35.760Z,99026.06
2023-04-15T00:53:04.164Z,99032.34
2023-04-15T00:55:32.768Z,99037.06
2023-04-15T00:58:01.163Z,99046.16
2023-04-15T01:00:30.014Z,99049.63
2023-04-15T01:02:59.089Z,99049.47
2023-04-15T01:05:28.041Z,99062.94
2023-04-15T01:07:57.289Z,99065.06
2023-04-15T01:10:25.765Z,99069.28
2023-04-15T01:12:54.279Z,99082.69
2023-04-15T01:15:22.862Z,99088.19
2023-04-15T01:17:51.751Z,99084.47
2023-04-15T01:20:21.284Z,99083.03
2023-04-15T01:22:50.647Z,99095.13
2023-04-15T01:25:34.319Z,99089.34
2023-04-15T01:28:03.252Z,99091.47
2023-04-15T01:30:35.789Z,99090.78
2023-04-15T01:33:04.531Z,99100.06
2023-04-15T01:35:33.214Z,99103.69
2023-04-15T01:38:09.399Z,99092.97
2023-04-15T01:40:38.059Z,99107.19
2023-04-15T01:43:06.431Z,99110.03
2023-04-15T01:45:34.821Z,99107.06
2023-04-15T01:48:03.191Z,99105.59
2023-04-15T01:50:32.035Z,99103.38
2023-04-15T01:53:00.419Z,99106.25
2023-04-15T01:55:28.791Z,99107.03
2023-04-15T01:57:57.174Z,99108.38
2023-04-15T02:00:25.890Z,99114.06
2023-04-15T02:02:54.905Z,99115.41
2023-04-15T02:05:23.276Z,99111.28
2023-04-15T02:07:51.652Z,99121.34
2023-04-15T02:10:20.089Z,99117.22
2023-04-15T02:12:48.568Z,99121.38
2023-04-15T02:15:17.373Z,99120.44
2023-04-15T02:17:46.955Z,99121.56
2023-04-15T02:20:16.296Z,99125.00
2023-04-15T02:22:44.880Z,99125.38
2023-04-15T02:25:13.206Z,99126.50
2023-04-15T02:27:41.615Z,99119.91
2023-04-15T02:30:10.312Z,99126.16
2023-04-15T02:32:39.144Z,99111.25
2023-04-15T02:35:09.032Z,99121.25
2023-04-15T02:37:44.349Z,99117.66
2023-04-15T02:40:14.066Z,99116.94
2023-04-15T02:42:43.774Z,99123.91
2023-04-15T02:45:13.613Z,99114.06
2023-04-15T02:47:42.510Z,99123.31
2023-04-15T02:50:13.496Z,99124.09
2023-04-15T02:52:43.217Z,99117.63
2023-04-15T02:55:12.044Z,99110.63
2023-04-15T02:57:41.672Z,99113.44
2023-04-15T03:00:12.572Z,99107.00
2023-04-15T03:02:42.002Z,99114.13
2023-04-15T03:05:14.865Z,99103.34
2023-04-15T03:07:43.253Z,99109.78
2023-04-15T03:10:12.492Z,99101.22
2023-04-15T03:12:41.692Z,99095.66
2023-04-15T03:15:11.041Z,99096.94
2023-04-15T03:17:39.673Z,99090.50
2023-04-15T03:20:08.830Z,99073.22
2023-04-15T03:22:37.278Z,99069.03
2023-04-15T03:25:06.240Z,99083.19
2023-04-15T03:27:34.684Z,99075.19
2023-04-15T03:30:03.045Z,99067.34
2023-04-15T03:32:31.787Z,99063.69
2023-04-15T03:35:00.171Z,99064.22
2023-04-15T03:37:28.601Z,99057.56
2023-04-15T03:39:56.945Z,99054.47
2023-04-15T03:42:25.304Z,99050.66
2023-04-15T03:44:53.829Z,99047.72
2023-04-15T03:47:22.523Z,99042.00
2023-04-15T03:49:50.984Z,99046.84
2023-04-15T03:52:19.356Z,99036.88
2023-04-15T03:54:47.678Z,99029.59
2023-04-15T03:57:16.090Z,99037.31
2023-04-15T03:59:44.822Z,99032.91
2023-04-15T04:02:13.236Z,99033.38
2023-04-15T04:04:41.682Z,99029.38
2023-04-15T04:07:10.097Z,99026.44
2023-04-15T04:09:40.134Z,99023.50
2023-04-15T04:12:08.522Z,99018.59
2023-04-15T04:14:36.972Z,99011.50
2023-04-15T04:17:05.442Z,99009.75
2023-04-15T04:19:33.918Z,99004.38
2023-04-15T04:22:03.255Z,98999.91
2023-04-15T04:24:31.822Z,98996.94
2023-04-15T04:27:00.197Z,98994.00
2023-04-15T04:29:28.545Z,98988.31
2023-04-15T04:31:56.918Z,98985.34
2023-04-15T04:34:25.409Z,98982.81
2023-04-15T04:36:53.760Z,98969.09
2023-04-15T04:39:22.085Z,98978.09
2023-04-15T04:41:51.111Z,98970.91
2023-04-15T04:44:19.694Z,98967.91
2023-04-15T04:46:48.095Z,98964.19
2023-04-15T04:49:16.501Z,98958.34
2023-04-15T04:51:44.949Z,98944.53
2023-04-15T04:54:13.374Z,98943.09
2023-04-15T04:56:41.975Z,98932.13
2023-04-15T04:59:10.421Z,98932.56
2023-04-15T05:01:38.834Z,98931.66
2023-04-15T05:04:08.612Z,98919.38
2023-04-15T05:06:37.784Z,98915.44
2023-04-15T05:09:06.109Z,98911.53
2023-04-15T05:11:34.832Z,98909.13
2023-04-15T05:14:03.295Z,98903.13
2023-04-15T05:16:31.850Z,98897.69
2023-04-15T05:19:00.567Z,98897.41
2023-04-15T05:21:29.223Z,98893.63
2023-04-15T05:23:57.615Z,98883.84
2023-04-15T05:26:34.794Z,98878.56
2023-04-15T05:29:03.242Z,98877.47
2023-04-15T05:31:31.699Z,98871.47
2023-04-15T05:34:00.167Z,98861.09
2023-04-15T05:36:29.937Z,98855.94
2023-04-15T05:38:58.264Z,98849.16
2023-04-15T05:41:26.648Z,98841.00
2023-04-15T05:43:54.983Z,98836.31
2023-04-15T05:46:23.792Z,98832.25
2023-04-15T05:48:54.240Z,98827.41
2023-04-15T05:51:23.224Z,98817.63
2023-04-15T05:53:51.551Z,98815.03
2023-04-15T05:56:21.303Z,98804.00
2023-04-15T05:58:50.512Z,98799.97
2023-04-15T06:01:19.878Z,98791.66
2023-04-15T06:03:48.349Z,98786.97
2023-04-15T06:06:16.734Z,98779.41
2023-04-15T06:08:45.101Z,98776.19
2023-04-15T06:11:13.437Z,98772.09
2023-04-15T06:13:41.916Z,98762.41
2023-04-15T06:16:10.318Z,98759.09
2023-04-15T06:18:38.669Z,98752.75
2023-04-15T06:21:07.132Z,98751.53
2023-04-15T06:23:38.780Z,98746.06
2023-04-15T06:26:07.261Z,98739.09
2023-04-15T06:28:35.720Z,98735.63
2023-04-15T06:31:04.320Z,98726.59
2023-04-15T06:33:33.405Z,98721.00
2023-04-15T06:36:01.857Z,98728.22
2023-04-15T06:38:30.198Z,98711.94
2023-04-15T06:40:58.600Z,98710.72
2023-04-15T06:43:26.995Z,98705.75
2023-04-15T06:45:55.441Z,98703.00
2023-04-15T06:48:24.231Z,98696.03
2023-04-15T06:50:53.778Z,98695.28
2023-04-15T06:53:23.046Z,98686.09
2023-04-15T06:55:51.400Z,98691.19
2023-04-15T06:58:19.742Z,98689.94
2023-04-15T07:00:48.897Z,98677.03
2023-04-15T07:03:17.463Z,98669.94
2023-04-15T07:05:45.865Z,98670.06
2023-04-15T07:08:15.019Z,98666.56
2023-04-15T07:10:43.401Z,98654.63
2023-04-15T07:13:12.338Z,98644.06
2023-04-15T07:15:40.737Z,98640.44
2023-04-15T07:18:09.091Z,98632.63
2023-04-15T07:20:37.675Z,98627.63
2023-04-15T07:23:06.002Z,98614.72
2023-04-15T07:25:34.348Z,98606.75
2023-04-15T07:28:03.495Z,98609.72
2023-04-15T07:30:31.887Z,98605.50
2023-04-15T07:33:00.609Z,98604.00
2023-04-15T07:35:30.271Z,98593.31
2023-04-15T07:37:58.733Z,98581.13
2023-04-15T07:40:27.556Z,98584.72
2023-04-15T07:42:58.198Z,98587.59
2023-04-15T07:45:26.552Z,98588.09
2023-04-15T07:47:54.982Z,98592.84
2023-04-15T07:50:24.222Z,98590.59
2023-04-15T07:52:53.377Z,98590.59
2023-04-15T07:55:23.854Z,98581.16
2023-04-15T07:57:52.657Z,98578.16
2023-04-15T08:00:21.145Z,98573.69
2023-04-15T08:02:50.812Z,98570.72
2023-04-15T08:05:19.311Z,98568.34
2023-04-15T08:07:47.850Z,98553.91
2023-04-15T08:10:16.293Z,98538.75
2023-04-15T08:12:44.754Z,98543.34
2023-04-15T08:15:14.083Z,98534.91
2023-04-15T08:17:42.604Z,98534.63
2023-04-15T08:20:11.287Z,98525.81
2023-04-15T08:22:39.742Z,98526.25
2023-04-15T08:25:08.473Z,98530.19
2023-04-15T08:27:37.224Z,98525.69
2023-04-15T08:30:06.090Z,98516.66
2023-04-15T08:32:34.501Z,98510.06
2023-04-15T08:35:03.080Z,98507.13
2023-04-15T08:37:31.492Z,98502.84
2023-04-15T08:39:59.827Z,98495.13
2023-04-15T08:42:50.997Z,98496.06
2023-04-15T08:45:20.312Z,98504.84
2023-04-15T08:47:53.844Z,98502.19
2023-04-15T08:50:23.776Z,98507.50
2023-04-15T08:52:56.423Z,98502.69
2023-04-15T08:55:26.419Z,98508.59
2023-04-15T08:57:54.784Z,98508.03
2023-04-15T09:00:24.406Z,98503.13
2023-04-15T09:02:53.555Z,98508.41
2023-04-15T09:05:22.571Z,98495.09
2023-04-15T09:07:52.841Z,98494.38
2023-04-15T09:10:21.221Z,98489.31
2023-04-15T09:12:49.581Z,98490.72
2023-04-15T09:15:18.617Z,98480.69
2023-04-15T09:17:47.439Z,98497.34
2023-04-15T09:20:19.797Z,98489.88
2023-04-15T09:22:50.086Z,98480.31
2023-04-15T09:25:35.073Z,98475.66
2023-04-15T09:28:04.231Z,98470.72
2023-04-15T09:30:32.699Z,98473.13
2023-04-15T09:33:05.841Z,98473.44
2023-04-15T09:35:34.293Z,98478.84
2023-04-15T09:38:08.643Z,98474.38
2023-04-15T09:40:39.251Z,98477.03
2023-04-15T09:43:08.599Z,98486.16
2023-04-15T09:45:38.075Z,98478.25
2023-04-15T09:48:32.112Z,98478.69
2023-04-15T09:51:01.599Z,98464.31
2023-04-15T09:53:31.812Z,98462.69
2023-04-15T09:56:04.582Z,98456.09
2023-04-15T09:58:35.928Z,98460.72
2023-04-15T10:01:08.686Z,98454.00
2023-04-15T10:03:38.535Z,98454.28
2023-04-15T10:06:07.000Z,98449.66
2023-04-15T10:08:36.241Z,98458.63
2023-04-15T10:11:05.727Z,98457.13
2023-04-15T10:13:36.041Z,98454.75
2023-04-15T10:16:13.017Z,98459.38
2023-04-15T10:18:45.940Z,98471.81
2023-04-15T10:21:17.430Z,98473.72
2023-04-15T10:23:49.226Z,98474.91
2023-04-15T10:26:18.680Z,98478.34
2023-04-15T10:28:50.857Z,98477.59
2023-04-15T10:31:20.982Z,98474.03
2023-04-15T10:33:51.081Z,98480.31
2023-04-15T10:36:21.329Z,98480.91
2023-04-15T10:38:50.135Z,98477.91
2023-04-15T10:41:20.184Z,98487.03
2023-04-15T10:43:54.613Z,98481.75
2023-04-15T10:46:48.357Z,98492.06
2023-04-15T10:49:19.238Z,98496.72
2023-04-15T10:51:52.700Z,98498.63
2023-04-15T10:54:27.064Z,98498.91
2023-04-15T10:57:07.505Z,98502.94
2023-04-15T11:00:00.208Z,98501.28
2023-04-15T11:02:48.966Z,98509.66
2023-04-15T11:05:18.773Z,98508.75
2023-04-15T11:07:57.942Z,98511.44
2023-04-15T11:10:32.332Z,98521.91
2023-04-15T11:13:05.392Z,98522.34
2023-04-15T11:15:48.244Z,98531.84
2023-04-15T11:18:29.359Z,98537.38
2023-04-15T11:21:03.239Z,98547.09
2023-04-15T11:23:37.661Z,98564.72
2023-04-15T11:26:10.568Z,98579.47
2023-04-15T11:28:41.659Z,98576.31
2023-04-15T11:31:12.800Z,98576.75
2023-04-15T11:34:01.342Z,98574.34
2023-04-15T11:36:32.881Z,98575.53
2023-04-15T11:39:01.777Z,98566.66
2023-04-15T11:41:30.123Z,98575.63
2023-04-15T11:43:58.524Z,98572.03
2023-04-15T11:46:33.139Z,98576.19
2023-04-15T11:49:01.754Z,98581.72
2023-04-15T11:51:35.239Z,98584.56
2023-04-15T11:54:04.880Z,98602.66
2023-04-15T11:56:33.412Z,98609.25
2023-04-15T11:59:02.264Z,98613.59
2023-04-15T12:01:37.419Z,98611.50
2023-04-15T12:04:14.417Z,98609.84
2023-04-15T12:06:43.132Z,98610.00
2023-04-15T12:09:16.414Z,98616.25
2023-04-15T12:11:49.965Z,98628.94
2023-04-15T12:14:27.522Z,98647.75
2023-04-15T12:16:59.637Z,98642.50
2023-04-15T12:19:35.998Z,98655.03
2023-04-15T12:22:11.805Z,98663.97
2023-04-15T12:24:41.395Z,98675.75
2023-04-15T12:27:14.404Z,98687.50
2023-04-15T12:29:46.897Z,98701.34
2023-04-15T12:32:17.216Z,98709.53
2023-04-15T12:34:54.129Z,98729.03
2023-04-15T12:37:23.096Z,98723.75
2023-04-15T12:39:52.004Z,98739.13
2023-04-15T12:42:20.725Z,98735.34
2023-04-15T12:44:49.297Z,98743.69
2023-04-15T12:47:17.829Z,98748.44
2023-04-15T12:49:46.613Z,98754.50
2023-04-15T12:52:15.004Z,98752.84
2023-04-15T12:54:43.375Z,98760.44
2023-04-15T12:57:11.735Z,98770.44
2023-04-15T12:59:40.588Z,98774.44
2023-04-15T13:02:09.851Z,98775.75
2023-04-15T13:04:38.418Z,98777.84
2023-04-15T13:07:07.227Z,98776.19
2023-04-15T13:09:36.159Z,98784.50
2023-04-15T13:12:06.373Z,98767.72
2023-04-15T13:14:34.750Z,98776.47
2023-04-15T13:17:05.131Z,98781.03
2023-04-15T13:19:33.764Z,98778.41
2023-04-15T13:22:02.146Z,98780.13
2023-04-15T13:24:30.555Z,98798.47
2023-04-15T13:27:00.159Z,98805.28
2023-04-15T13:29:28.598Z,98809.84
2023-04-15T13:31:57.900Z,98804.59
2023-04-15T13:34:26.342Z,98804.97
2023-04-15T13:36:54.706Z,98809.13
2023-04-15T13:39:23.052Z,98808.78
2023-04-15T13:41:51.392Z,98813.34
2023-04-15T13:44:21.922Z,98820.72
2023-04-15T13:46:50.645Z,98827.94
2023-04-15T13:49:18.976Z,98837.38
2023-04-15T13:51:47.311Z,98844.03
2023-04-15T13:54:15.703Z,98852.31
2023-04-15T13:56:44.169Z,98854.03
2023-04-15T13:59:12.549Z,98866.50
2023-04-15T14:01:42.328Z,98871.97
2023-04-15T14:04:11.127Z,98881.06
2023-04-15T14:06:39.714Z,98883.72
2023-04-15T14:09:08.264Z,98881.63
2023-04-15T14:11:37.696Z,98880.88
2023-04-15T14:14:06.873Z,98877.09
2023-04-15T14:16:35.794Z,98868.44
2023-04-15T14:19:04.743Z,98872.00
2023-04-15T14:21:33.573Z,98859.75
2023-04-15T14:24:01.955Z,98867.47
2023-04-15T14:26:30.338Z,98860.88
2023-04-15T14:28:58.686Z,98866.91
2023-04-15T14:31:27.140Z,98875.81
2023-04-15T14:33:55.569Z,98886.19
2023-04-15T14:36:24.317Z,98894.69
2023-04-15T14:38:52.742Z,98887.50
2023-04-15T14:41:21.082Z,98879.59
2023-04-15T14:43:49.444Z,98875.25
2023-04-15T14:46:18.037Z,98876.56
2023-04-15T14:48:46.435Z,98881.13
2023-04-15T14:51:14.887Z,98892.25
2023-04-15T14:53:43.410Z,98901.66
2023-04-15T14:56:11.760Z,98909.03
2023-04-15T14:58:40.191Z,98909.97
2023-04-15T15:01:08.642Z,98907.50
2023-04-15T15:03:41.026Z,98907.13
2023-04-15T15:06:09.957Z,98908.25
2023-04-15T15:08:38.604Z,98905.81
2023-04-15T15:11:07.017Z,98918.47
2023-04-15T15:13:35.410Z,98921.28
2023-04-15T15:16:03.977Z,98946.00
2023-04-15T15:18:32.521Z,98964.25
2023-04-15T15:21:00.857Z,98966.91
2023-04-15T15:23:29.299Z,98971.06
2023-04-15T15:25:58.408Z,98969.53
2023-04-15T15:28:26.951Z,98972.94
2023-04-15T15:30:55.386Z,98986.31
2023-04-15T15:33:24.345Z,98979.72
2023-04-15T15:35:52.827Z,98980.84
2023-04-15T15:38:21.549Z,98972.94
2023-04-15T15:40:49.896Z,98994.59
2023-04-15T15:43:18.249Z,99008.75
2023-04-15T15:45:46.722Z,98992.16
2023-04-15T15:48:15.093Z,98991.97
2023-04-15T15:50:43.467Z,98991.78
2023-04-15T15:53:13.297Z,98995.16
2023-04-15T15:55:41.686Z,98991.34
2023-04-15T15:58:10.071Z,99001.38
2023-04-15T16:00:38.480Z,99002.47
2023-04-15T16:03:07.842Z,98993.81
2023-04-15T16:05:37.493Z,98987.94
2023-04-15T16:08:06.321Z,98977.97
2023-04-15T16:10:34.805Z,98969.25
2023-04-15T16:13:03.833Z,98979.06
2023-04-15T16:15:32.267Z,98974.16
2023-04-15T16:18:00.725Z,98967.75
2023-04-15T16:20:32.039Z,98961.13
2023-04-15T16:23:00.495Z,98954.72
2023-04-15T16:25:28.914Z,98944.53
2023-04-15T16:28:01.466Z,98946.63
2023-04-15T16:30:40.461Z,98931.53
2023-04-15T16:33:09.765Z,98938.50
2023-04-15T16:35:38.180Z,98945.28
2023-04-15T16:38:07.355Z,98933.78
2023-04-15T16:40:35.906Z,98925.84
2023-04-15T16:43:05.714Z,98924.31
2023-04-15T16:45:34.244Z,98923.38
2023-04-15T16:48:02.646Z,98931.66
2023-04-15T16:50:31.241Z,98925.63
2023-04-15T16:52:59.669Z,98931.09
2023-04-15T16:55:28.512Z,98924.47
2023-04-15T16:58:02.418Z,98925.25
2023-04-15T17:00:33.035Z,98934.84
2023-04-15T17:03:05.035Z,98933.34
2023-04-15T17:05:33.541Z,98940.28
2023-04-15T17:08:02.020Z,98947.81
2023-04-15T17:10:31.662Z,98946.31
2023-04-15T17:13:00.793Z,98953.28
2023-04-15T17:15:29.363Z,98957.97
2023-04-15T17:17:57.818Z,98959.28
2023-04-15T17:20:27.474Z,98954.94
2023-04-15T17:22:55.956Z,98955.50
2023-04-15T17:25:24.813Z,98959.63
2023-04-15T17:27:53.169Z,98966.59
2023-04-15T17:30:23.104Z,98957.38
2023-04-15T17:32:53.626Z,98959.25
2023-04-15T17:35:22.418Z,98963.38
2023-04-15T17:37:50.762Z,98980.88
2023-04-15T17:40:19.250Z,98994.25
2023-04-15T17:42:48.212Z,99004.78
2023-04-15T17:45:16.782Z,98994.03
2023-04-15T17:47:45.327Z,98993.84
2023-04-15T17:50:13.729Z,99002.88
2023-04-15T17:52:42.381Z,98997.78
2023-04-15T17:55:10.961Z,98998.53
2023-04-15T17:57:39.301Z,98992.69
2023-04-15T18:00:11.684Z,98987.59
2023-04-15T18:02:40.567Z,98974.03
2023-04-15T18:05:10.069Z,98970.25
2023-04-15T18:07:38.533Z,98970.81
2023-04-15T18:10:11.148Z,98970.56
2023-04-15T18:12:39.565Z,98976.03
2023-04-15T18:15:10.394Z,98990.16
2023-04-15T18:17:38.891Z,98987.69
2023-04-15T18:20:08.077Z,98992.38
2023-04-15T18:22:36.690Z,98991.63
2023-04-15T18:25:05.980Z,98980.69
2023-04-15T18:27:35.578Z,98979.16
2023-04-15T18:30:03.978Z,98981.03
2023-04-15T18:32:33.601Z,98972.91
2023-04-15T18:35:02.147Z,98984.00
2023-04-15T18:37:30.687Z,98980.44
2023-04-15T18:39:59.528Z,98971.00
2023-04-15T18:42:27.997Z,98967.19
2023-04-15T18:44:56.838Z,98969.81
2023-04-15T18:47:27.294Z,98965.28
2023-04-15T18:49:55.748Z,98968.66
2023-04-15T18:52:24.173Z,98975.63
2023-04-15T18:54:52.490Z,98967.72
2023-04-15T18:57:25.031Z,98954.91
2023-04-15T18:59:59.603Z,98954.69
2023-04-15T19:02:28.041Z,98956.53
2023-04-15T19:04:56.721Z,98952.75
2023-04-15T19:07:25.187Z,98958.19
2023-04-15T19:09:54.490Z,98962.88
2023-04-15T19:12:22.889Z,98963.44
2023-04-15T19:14:51.716Z,98959.66
2023-04-15T19:17:20.111Z,98955.31
2023-04-15T19:19:48.510Z,98961.50
2023-04-15T19:22:17.673Z,98954.34
2023-04-15T19:24:46.846Z,98950.00
2023-04-15T19:27:15.351Z,98938.72
2023-04-15T19:29:43.834Z,98928.75
2023-04-15T19:32:12.184Z,98934.19
2023-04-15T19:34:40.528Z,98929.09
2023-04-15T19:37:08.970Z,98925.31
2023-04-15T19:39:37.422Z,98924.34
2023-04-15T19:42:05.876Z,98915.50
2023-04-15T19:44:34.300Z,98916.59
2023-04-15T19:47:02.651Z,98923.00
2023-04-15T19:49:32.360Z,98926.16
2023-04-15T19:52:00.720Z,98920.31
2023-04-15T19:54:29.062Z,98925.75
2023-04-15T19:56:57.486Z,98926.28
2023-04-15T19:59:25.924Z,98926.28
2023-04-15T20:01:54.602Z,98922.69
2023-04-15T20:04:23.627Z,98923.47
2023-04-15T20:06:51.988Z,98923.47
2023-04-15T20:09:20.310Z,98922.69
2023-04-15T20:12:48.354Z,98920.44
2023-04-15T20:14:37.371Z,98915.91
2023-04-15T20:17:05.836Z,98929.03
2023-04-15T20:19:34.293Z,98928.06
2023-04-15T20:22:02.733Z,98933.72
2023-04-15T20:24:31.227Z,98934.28
2023-04-15T20:26:59.563Z,98934.81
2023-04-15T20:29:28.652Z,98934.63
2023-04-15T20:31:57.314Z,98935.94
2023-04-15T20:34:25.647Z,98932.88
2023-04-15T20:36:53.982Z,98942.44
2023-04-15T20:39:22.510Z,98945.03
2023-04-15T20:41:51.690Z,98945.59
2023-04-15T20:44:20.037Z,98945.91
2023-04-15T20:46:48.377Z,98944.41
2023-04-15T20:49:16.867Z,98944.75
2023-04-15T20:51:45.198Z,98939.66
2023-04-15T20:54:13.564Z,98931.00
2023-04-15T20:56:42.026Z,98934.34
2023-04-15T20:59:10.338Z,98930.56
2023-04-15T21:01:38.775Z,98931.88
2023-04-15T21:04:07.255Z,98935.25
2023-04-15T21:06:36.411Z,98946.53
2023-04-15T21:09:05.133Z,98947.06
2023-04-15T21:11:53.399Z,98942.94
2023-04-15T21:14:22.162Z,98953.25
2023-04-15T21:16:50.617Z,98966.59
2023-04-15T21:19:18.979Z,98958.69
2023-04-15T21:21:47.390Z,98952.63
2023-04-15T21:24:15.783Z,98956.50
2023-04-15T21:26:44.156Z,98957.06
2023-04-15T21:29:12.982Z,98957.41
2023-04-15T21:31:41.775Z,98964.34
2023-04-15T21:34:10.806Z,98969.00
2023-04-15T21:36:39.778Z,98972.94
2023-04-15T21:39:08.326Z,98976.28
2023-04-15T21:41:40.368Z,98969.69
2023-04-15T21:44:08.702Z,98973.06
2023-04-15T21:46:37.220Z,98984.09
2023-04-15T21:49:08.033Z,98983.91
2023-04-15T21:51:36.512Z,98983.13
2023-04-15T21:54:04.948Z,98978.03
2023-04-15T21:56:33.714Z,98995.47
2023-04-15T21:59:02.084Z,98991.09
2023-04-15T22:01:30.610Z,98990.34
2023-04-15T22:03:59.161Z,98989.38
2023-04-15T22:06:27.979Z,98989.94
2023-04-15T22:09:11.335Z,98991.78
2023-04-15T22:11:41.223Z,98997.94
2023-04-15T22:14:10.133Z,99009.75
2023-04-15T22:16:38.663Z,99016.69
2023-04-15T22:19:07.590Z,99018.75
2023-04-15T22:21:36.449Z,99018.53
2023-04-15T22:24:38.141Z,99022.13
2023-04-15T22:26:53.237Z,99027.53
2023-04-15T22:29:22.921Z,99020.38
2023-04-15T22:31:51.368Z,99026.78
2023-04-15T22:34:22.365Z,99031.66
2023-04-15T22:36:52.184Z,99036.31
2023-04-15T22:39:22.047Z,99038.91
2023-04-15T22:41:51.306Z,99043.03
2023-04-15T22:44:19.652Z,99047.69
2023-04-15T22:46:48.036Z,99043.09
2023-04-15T22:49:16.488Z,99052.09
2023-04-15T22:51:45.111Z,99055.47
2023-04-15T22:54:13.486Z,99056.75
2023-04-15T22:56:41.816Z,99052.44
2023-04-15T22:59:10.334Z,99055.03
2023-04-15T23:01:39.229Z,99046.34
2023-04-15T23:04:09.063Z,99058.91
2023-04-15T23:06:38.485Z,99062.28
2023-04-15T23:09:07.662Z,99051.56
2023-04-15T23:11:36.316Z,99052.09
2023-04-15T23:14:04.718Z,99050.03
2023-04-15T23:16:33.144Z,99047.75
2023-04-15T23:19:01.523Z,99054.69
2023-04-15T23:21:30.054Z,99051.34
2023-04-15T23:23:58.438Z,99056.97
2023-04-15T23:26:28.292Z,99055.47
2023-04-15T23:28:57.460Z,99056.75
2023-04-15T23:31:25.909Z,99069.84
2023-04-15T23:33:54.289Z,99072.66
2023-04-15T23:36:22.838Z,99074.72
2023-04-15T23:38:51.164Z,99079.06
2023-04-15T23:41:19.531Z,99082.09
2023-04-15T23:43:47.867Z,99089.25
2023-04-15T23:46:16.445Z,99096.94
2023-04-15T23:48:44.830Z,99102.00
2023-04-15T23:51:13.183Z,99105.06
2023-04-15T23:53:41.722Z,99109.59
2023-04-15T23:56:10.279Z,99109.28
2023-04-15T23:58:38.715Z,99109.72
